createdAt,value
2018-02-22T00:01:40.522Z,-3.50
2018-02-22T00:04:50.625Z,-3.60
2018-02-22T00:08:00.848Z,-3.60
2018-02-22T00:11:10.955Z,-3.60
2018-02-22T00:14:21.577Z,-3.60
2018-02-22T00:17:32.547Z,-3.60
2018-02-22T00:20:43.851Z,-3.60
2018-02-22T00:23:54.084Z,-3.60
2018-02-22T00:27:04.168Z,-3.60
2018-02-22T00:30:14.372Z,-3.60
2018-02-22T00:33:24.151Z,-3.70
2018-02-22T00:36:34.165Z,-3.70
2018-02-22T00:39:44.489Z,-3.70
2018-02-22T00:42:54.506Z,-3.70
2018-02-22T00:46:04.394Z,-3.70
2018-02-22T00:49:14.352Z,-3.70
2018-02-22T00:52:24.263Z,-3.70
2018-02-22T00:55:35.430Z,-3.80
2018-02-22T00:58:46.092Z,-3.80
2018-02-22T01:01:56.244Z,-3.80
2018-02-22T01:05:06.297Z,-3.80
2018-02-22T01:08:16.021Z,-3.80
2018-02-22T01:11:26.400Z,-3.80
2018-02-22T01:14:36.959Z,-3.80
2018-02-22T01:17:46.991Z,-3.80
2018-02-22T01:20:56.760Z,-3.90
2018-02-22T01:24:06.524Z,-3.80
2018-02-22T01:27:16.494Z,-3.80
2018-02-22T01:30:26.540Z,-3.90
2018-02-22T01:33:36.518Z,-3.90
2018-02-22T01:36:46.488Z,-3.90
2018-02-22T01:39:56.537Z,-3.90
2018-02-22T01:43:07.146Z,-3.90
2018-02-22T01:46:17.687Z,-4.00
2018-02-22T01:49:27.566Z,-4.00
2018-02-22T01:52:38.280Z,-4.00
2018-02-22T01:55:49.112Z,-4.00
2018-02-22T01:58:59.291Z,-4.00
2018-02-22T02:02:09.219Z,-4.00
2018-02-22T02:05:19.196Z,-4.00
2018-02-22T02:08:29.458Z,-4.00
2018-02-22T02:11:40.127Z,-4.00
2018-02-22T02:14:50.106Z,-4.00
2018-02-22T02:18:00.601Z,-4.00
2018-02-22T02:21:10.623Z,-4.00
2018-02-22T02:24:20.552Z,-4.00
2018-02-22T02:27:30.586Z,-4.00
2018-02-22T02:30:40.406Z,-4.00
2018-02-22T02:33:50.575Z,-4.10
2018-02-22T02:37:00.152Z,-4.10
2018-02-22T02:40:10.326Z,-4.10
2018-02-22T02:43:20.262Z,-4.10
2018-02-22T02:46:30.908Z,-4.20
2018-02-22T02:49:41.298Z,-4.20
2018-02-22T02:52:51.218Z,-4.20
2018-02-22T02:56:02.012Z,-4.20
2018-02-22T02:59:12.191Z,-4.20
2018-02-22T03:02:22.226Z,-4.20
2018-02-22T03:05:32.912Z,-4.30
2018-02-22T03:08:42.825Z,-4.30
2018-02-22T03:11:52.755Z,-4.30
2018-02-22T03:15:03.235Z,-4.30
2018-02-22T03:18:12.977Z,-4.30
2018-02-22T03:21:22.706Z,-4.30
2018-02-22T03:24:33.008Z,-4.30
2018-02-22T03:27:43.612Z,-4.40
2018-02-22T03:30:53.444Z,-4.40
2018-02-22T03:34:03.517Z,-4.40
2018-02-22T03:37:13.431Z,-4.40
2018-02-22T03:40:23.563Z,-4.50
2018-02-22T03:43:33.559Z,-4.50
2018-02-22T03:46:43.630Z,-4.50
2018-02-22T03:49:53.501Z,-4.50
2018-02-22T03:53:04.305Z,-4.50
2018-02-22T03:56:14.403Z,-4.50
2018-02-22T03:59:24.468Z,-4.50
2018-02-22T04:02:34.594Z,-4.50
2018-02-22T04:05:44.575Z,-4.50
2018-02-22T04:08:55.098Z,-4.50
2018-02-22T04:12:05.008Z,-4.60
2018-02-22T04:15:14.922Z,-4.60
2018-02-22T04:18:25.367Z,-4.60
2018-02-22T04:21:35.107Z,-4.60
2018-02-22T04:24:45.214Z,-4.60
2018-02-22T04:27:55.156Z,-4.70
2018-02-22T04:31:05.292Z,-4.70
2018-02-22T04:34:15.598Z,-4.70
2018-02-22T04:37:26.264Z,-4.70
2018-02-22T04:40:36.282Z,-4.70
2018-02-22T04:43:46.419Z,-4.70
2018-02-22T04:46:56.419Z,-4.70
2018-02-22T04:50:06.303Z,-4.70
2018-02-22T04:53:16.872Z,-4.70
2018-02-22T04:56:26.807Z,-4.70
2018-02-22T04:59:36.783Z,-4.80
2018-02-22T05:02:46.868Z,-4.80
2018-02-22T05:05:56.675Z,-4.70
2018-02-22T05:09:07.328Z,-4.80
2018-02-22T05:12:17.632Z,-4.80
2018-02-22T05:15:27.707Z,-4.80
2018-02-22T05:18:38.380Z,-4.80
2018-02-22T05:21:48.530Z,-4.80
2018-02-22T05:24:58.752Z,-4.80
2018-02-22T05:28:08.660Z,-4.90
2018-02-22T05:31:18.748Z,-4.90
2018-02-22T05:34:29.088Z,-5.00
2018-02-22T05:37:38.840Z,-5.00
2018-02-22T05:40:49.983Z,-5.00
2018-02-22T05:44:00.234Z,-5.00
2018-02-22T05:47:10.288Z,-5.00
2018-02-22T05:50:20.054Z,-5.00
2018-02-22T05:53:30.317Z,-5.10
2018-02-22T05:56:40.387Z,-5.10
2018-02-22T05:59:50.335Z,-5.10
2018-02-22T06:03:00.907Z,-5.10
2018-02-22T06:06:11.382Z,-5.20
2018-02-22T06:09:21.217Z,-5.20
2018-02-22T06:12:32.141Z,-5.30
2018-02-22T06:15:42.532Z,-5.30
2018-02-22T06:18:53.049Z,-5.40
2018-02-22T06:22:03.431Z,-5.40
2018-02-22T06:25:13.811Z,-5.40
2018-02-22T06:28:23.919Z,-5.50
2018-02-22T06:31:34.012Z,-5.50
2018-02-22T06:34:43.840Z,-5.50
2018-02-22T06:37:53.678Z,-5.50
2018-02-22T06:41:03.723Z,-5.50
2018-02-22T06:44:13.641Z,-5.50
2018-02-22T06:47:24.344Z,-5.40
2018-02-22T06:50:34.834Z,-5.40
2018-02-22T06:53:45.048Z,-5.40
2018-02-22T06:56:54.953Z,-5.40
2018-02-22T07:00:04.767Z,-5.50
2018-02-22T07:03:14.822Z,-5.40
2018-02-22T07:06:25.316Z,-5.40
2018-02-22T07:09:35.756Z,-5.30
2018-02-22T07:12:46.676Z,-5.30
2018-02-22T07:15:57.637Z,-5.20
2018-02-22T07:19:07.643Z,-5.20
2018-02-22T07:22:17.576Z,-5.10
2018-02-22T07:25:27.798Z,-5.10
2018-02-22T07:28:38.632Z,-5.00
2018-02-22T07:31:48.687Z,-5.00
2018-02-22T07:34:59.425Z,-4.90
2018-02-22T07:38:09.428Z,-4.80
2018-02-22T07:41:20.119Z,-4.80
2018-02-22T07:44:30.151Z,-4.70
2018-02-22T07:47:40.350Z,-4.60
2018-02-22T07:50:50.362Z,-4.50
2018-02-22T07:54:01.229Z,-4.30
2018-02-22T07:57:11.474Z,-4.40
2018-02-22T08:00:21.563Z,-4.30
2018-02-22T08:03:32.228Z,-4.20
2018-02-22T08:06:42.742Z,-4.20
2018-02-22T08:09:52.501Z,-4.10
2018-02-22T08:13:03.550Z,-4.00
2018-02-22T08:16:13.393Z,-4.00
2018-02-22T08:19:23.319Z,-3.90
2018-02-22T08:22:34.020Z,-3.90
2018-02-22T08:25:43.850Z,-3.80
2018-02-22T08:28:53.716Z,-3.80
2018-02-22T08:32:03.657Z,-3.70
2018-02-22T08:35:14.913Z,-3.50
2018-02-22T08:38:25.895Z,-3.60
2018-02-22T08:41:36.592Z,-3.50
2018-02-22T08:44:47.655Z,-3.40
2018-02-22T08:47:57.797Z,-3.40
2018-02-22T08:51:08.513Z,-3.30
2018-02-22T08:54:18.957Z,-3.30
2018-02-22T08:57:28.974Z,-3.20
2018-02-22T09:00:39.137Z,-3.10
2018-02-22T09:03:49.113Z,-3.00
2018-02-22T09:06:59.972Z,-3.00
2018-02-22T09:10:10.180Z,-2.90
2018-02-22T09:13:20.635Z,-2.90
2018-02-22T09:16:30.544Z,-2.80
2018-02-22T09:19:40.461Z,-2.80
2018-02-22T09:22:50.413Z,-2.60
2018-02-22T09:26:00.413Z,-2.60
2018-02-22T09:29:11.283Z,-2.50
2018-02-22T09:32:22.100Z,-2.50
2018-02-22T09:35:31.934Z,-2.50
2018-02-22T09:38:42.633Z,-2.40
2018-02-22T09:41:53.509Z,-2.20
2018-02-22T09:45:03.406Z,-2.20
2018-02-22T09:48:14.321Z,-2.20
2018-02-22T09:51:24.085Z,-2.20
2018-02-22T09:54:33.947Z,-2.00
2018-02-22T09:57:44.338Z,-2.00
2018-02-22T10:00:55.253Z,-1.90
2018-02-22T10:04:05.800Z,-1.90
2018-02-22T10:07:15.871Z,-1.80
2018-02-22T10:10:25.890Z,-1.70
2018-02-22T10:13:35.756Z,-1.60
2018-02-22T10:16:45.794Z,-1.50
2018-02-22T10:19:55.780Z,-1.50
2018-02-22T10:23:05.847Z,-1.40
2018-02-22T10:26:15.734Z,-1.40
2018-02-22T10:29:25.755Z,-1.30
2018-02-22T10:32:35.634Z,-1.20
2018-02-22T10:35:46.283Z,-1.00
2018-02-22T10:38:56.253Z,-1.00
2018-02-22T10:42:06.673Z,-0.80
2018-02-22T10:45:16.849Z,-0.90
2018-02-22T10:48:26.598Z,-0.90
2018-02-22T10:51:36.473Z,-0.80
2018-02-22T10:54:47.176Z,-0.70
2018-02-22T10:57:57.886Z,-0.60
2018-02-22T11:01:13.369Z,-0.60
2018-02-22T11:04:23.956Z,-0.50
2018-02-22T11:07:34.258Z,-0.40
2018-02-22T11:10:44.887Z,-0.30
2018-02-22T11:13:56.221Z,-0.20
2018-02-22T11:17:07.324Z,0.00
2018-02-22T11:20:17.640Z,0.00
2018-02-22T11:23:27.561Z,0.00
2018-02-22T11:26:38.237Z,0.00
2018-02-22T11:29:48.589Z,0.00
2018-02-22T11:32:58.537Z,0.10
2018-02-22T11:36:08.591Z,0.10
2018-02-22T11:39:19.135Z,0.20
2018-02-22T11:42:29.068Z,0.20
2018-02-22T11:45:39.468Z,0.10
2018-02-22T11:48:50.680Z,0.20
2018-02-22T11:52:00.886Z,0.20
2018-02-22T11:55:11.316Z,0.20
2018-02-22T11:58:21.760Z,0.10
2018-02-22T12:01:31.705Z,0.00
2018-02-22T12:04:42.161Z,-0.10
2018-02-22T12:07:53.224Z,0.00
2018-02-22T12:11:03.129Z,0.00
2018-02-22T12:14:13.103Z,0.10
2018-02-22T12:17:23.405Z,0.10
2018-02-22T12:20:34.020Z,0.40
2018-02-22T12:23:43.945Z,0.30
2018-02-22T12:26:55.299Z,0.60
2018-02-22T12:30:06.045Z,0.60
2018-02-22T12:33:16.113Z,0.70
2018-02-22T12:36:28.203Z,0.70
2018-02-22T12:39:38.893Z,0.70
2018-02-22T12:42:50.047Z,0.80
2018-02-22T12:46:00.313Z,0.80
2018-02-22T12:49:11.371Z,1.00
2018-02-22T12:52:21.542Z,1.20
2018-02-22T12:55:31.360Z,1.00
2018-02-22T12:58:41.420Z,0.90
2018-02-22T13:01:51.431Z,1.10
2018-02-22T13:05:01.428Z,1.20
2018-02-22T13:08:11.851Z,1.00
2018-02-22T13:11:21.824Z,1.20
2018-02-22T13:14:32.221Z,1.20
2018-02-22T13:17:42.244Z,1.30
2018-02-22T13:20:52.745Z,1.10
2018-02-22T13:24:02.682Z,1.00
2018-02-22T13:27:13.099Z,1.00
2018-02-22T13:30:22.951Z,1.00
2018-02-22T13:33:44.544Z,0.80
2018-02-22T13:36:54.898Z,0.90
2018-02-22T13:40:06.358Z,0.90
2018-02-22T13:43:16.956Z,0.90
2018-02-22T13:46:26.769Z,0.90
2018-02-22T13:49:47.951Z,1.00
2018-02-22T13:52:59.155Z,1.20
2018-02-22T13:56:09.079Z,1.20
2018-02-22T13:59:19.436Z,1.20
2018-02-22T14:02:29.456Z,1.20
2018-02-22T14:05:39.908Z,0.90
2018-02-22T14:08:51.423Z,0.90
2018-02-22T14:12:01.572Z,0.90
2018-02-22T14:15:11.694Z,1.10
2018-02-22T14:18:22.079Z,1.20
2018-02-22T14:21:32.016Z,1.00
2018-02-22T14:24:42.540Z,0.80
2018-02-22T14:27:53.443Z,0.90
2018-02-22T14:31:03.223Z,0.90
2018-02-22T14:34:13.351Z,1.20
2018-02-22T14:37:23.800Z,1.30
2018-02-22T14:40:33.920Z,1.50
2018-02-22T14:43:44.568Z,1.20
2018-02-22T14:46:55.114Z,1.20
2018-02-22T14:50:05.746Z,1.10
2018-02-22T14:53:16.080Z,1.10
2018-02-22T14:56:25.938Z,1.20
2018-02-22T14:59:36.628Z,1.10
2018-02-22T15:02:46.779Z,1.00
2018-02-22T15:05:57.065Z,0.80
2018-02-22T15:09:07.738Z,0.70
2018-02-22T15:12:18.224Z,0.70
2018-02-22T15:15:28.491Z,0.70
2018-02-22T15:18:38.483Z,0.60
2018-02-22T15:21:49.162Z,0.60
2018-02-22T15:24:59.179Z,0.70
2018-02-22T15:28:09.540Z,0.60
2018-02-22T15:31:19.611Z,0.30
2018-02-22T15:34:29.521Z,0.10
2018-02-22T15:37:39.575Z,-0.10
2018-02-22T15:40:50.161Z,-0.20
2018-02-22T15:44:00.012Z,-0.20
2018-02-22T15:47:10.329Z,-0.30
2018-02-22T15:50:20.369Z,-0.40
2018-02-22T15:53:30.856Z,-0.50
2018-02-22T15:56:40.646Z,-0.50
2018-02-22T15:59:50.482Z,-0.30
2018-02-22T16:03:00.540Z,-0.20
2018-02-22T16:06:10.504Z,-0.30
2018-02-22T16:09:20.397Z,-0.40
2018-02-22T16:12:30.445Z,-0.30
2018-02-22T16:15:40.318Z,0.00
2018-02-22T16:18:50.327Z,-0.10
2018-02-22T16:22:00.169Z,-0.20
2018-02-22T16:25:11.613Z,-0.40
2018-02-22T16:28:21.889Z,-0.40
2018-02-22T16:31:32.730Z,-0.50
2018-02-22T16:34:43.204Z,-0.50
2018-02-22T16:37:54.306Z,-0.50
2018-02-22T16:41:04.716Z,-0.50
2018-02-22T16:44:15.204Z,-0.70
2018-02-22T16:47:25.534Z,-0.70
2018-02-22T16:50:36.875Z,-0.70
2018-02-22T16:53:47.027Z,-0.70
2018-02-22T16:56:57.453Z,-0.70
2018-02-22T17:00:07.476Z,-0.80
2018-02-22T17:03:17.362Z,-0.70
2018-02-22T17:06:28.274Z,-0.90
2018-02-22T17:09:38.380Z,-1.00
2018-02-22T17:12:48.095Z,-1.00
2018-02-22T17:15:58.491Z,-1.00
2018-02-22T17:19:09.239Z,-1.10
2018-02-22T17:22:19.188Z,-1.20
2018-02-22T17:25:28.759Z,-1.30
2018-02-22T17:28:44.803Z,-1.20
2018-02-22T17:32:00.500Z,-1.20
2018-02-22T17:35:12.958Z,-1.30
2018-02-22T17:38:23.383Z,-1.20
2018-02-22T17:41:34.683Z,-1.20
2018-02-22T17:44:44.572Z,-1.30
2018-02-22T17:47:54.120Z,-1.30
2018-02-22T17:51:04.409Z,-1.30
2018-02-22T17:54:14.675Z,-1.30
2018-02-22T17:57:24.900Z,-1.40
2018-02-22T18:00:36.133Z,-1.40
2018-02-22T18:03:46.849Z,-1.40
2018-02-22T18:06:57.849Z,-1.50
2018-02-22T18:10:08.213Z,-1.50
2018-02-22T18:13:18.821Z,-1.50
2018-02-22T18:16:29.618Z,-1.50
2018-02-22T18:19:39.852Z,-1.60
2018-02-22T18:22:49.475Z,-1.60
2018-02-22T18:25:59.262Z,-1.70
2018-02-22T18:29:09.535Z,-1.80
2018-02-22T18:32:19.568Z,-1.80
2018-02-22T18:35:29.527Z,-1.90
2018-02-22T18:38:44.845Z,-1.80
2018-02-22T18:41:55.132Z,-1.90
2018-02-22T18:45:10.512Z,-2.00
2018-02-22T18:48:21.124Z,-2.00
2018-02-22T18:51:31.615Z,-2.00
2018-02-22T18:54:41.986Z,-1.90
2018-02-22T18:57:52.558Z,-1.90
2018-02-22T19:01:02.458Z,-2.00
2018-02-22T19:04:13.078Z,-2.10
2018-02-22T19:07:23.181Z,-2.10
2018-02-22T19:10:33.253Z,-2.10
2018-02-22T19:13:43.977Z,-2.20
2018-02-22T19:16:54.497Z,-2.20
2018-02-22T19:20:04.263Z,-2.20
2018-02-22T19:23:14.363Z,-2.20
2018-02-22T19:26:24.735Z,-2.20
2018-02-22T19:29:34.520Z,-2.30
2018-02-22T19:32:44.665Z,-2.20
2018-02-22T19:35:54.801Z,-2.30
2018-02-22T19:39:04.330Z,-2.40
2018-02-22T19:42:14.912Z,-2.40
2018-02-22T19:45:25.669Z,-2.50
2018-02-22T19:48:35.795Z,-2.50
2018-02-22T19:51:46.094Z,-2.50
2018-02-22T19:54:56.699Z,-2.60
2018-02-22T19:58:07.152Z,-2.60
2018-02-22T20:01:18.406Z,-2.60
2018-02-22T20:04:28.873Z,-2.60
2018-02-22T20:07:39.815Z,-2.70
2018-02-22T20:10:50.588Z,-2.70
2018-02-22T20:14:00.833Z,-2.80
2018-02-22T20:17:11.569Z,-2.80
2018-02-22T20:20:21.650Z,-2.80
2018-02-22T20:23:31.918Z,-2.90
2018-02-22T20:26:43.176Z,-2.90
2018-02-22T20:29:53.736Z,-2.90
2018-02-22T20:33:04.000Z,-2.90
2018-02-22T20:36:15.410Z,-3.00
2018-02-22T20:39:26.920Z,-2.90
2018-02-22T20:42:37.077Z,-2.90
2018-02-22T20:45:47.452Z,-2.90
2018-02-22T20:48:58.285Z,-3.00
2018-02-22T20:55:56.969Z,-3.10
2018-02-22T20:59:06.722Z,-3.10
2018-02-22T21:02:16.496Z,-3.10
2018-02-22T21:05:27.097Z,-3.20
2018-02-22T21:08:37.417Z,-3.20
2018-02-22T21:11:49.248Z,-3.20
2018-02-22T21:14:59.392Z,-3.30
2018-02-22T21:18:09.456Z,-3.30
2018-02-22T21:21:19.712Z,-3.30
2018-02-22T21:24:29.638Z,-3.30
2018-02-22T21:27:39.950Z,-3.30
2018-02-22T21:30:50.312Z,-3.40
2018-02-22T21:34:00.665Z,-3.40
2018-02-22T21:37:11.462Z,-3.40
2018-02-22T21:40:22.081Z,-3.50
2018-02-22T21:43:32.424Z,-3.50
2018-02-22T21:46:43.192Z,-3.50
2018-02-22T21:49:53.399Z,-3.50
2018-02-22T21:53:03.204Z,-3.50
2018-02-22T21:56:13.274Z,-3.60
2018-02-22T21:59:24.716Z,-3.60
2018-02-22T22:02:35.359Z,-3.60
2018-02-22T22:05:45.533Z,-3.60
2018-02-22T22:08:55.760Z,-3.70
2018-02-22T22:12:05.614Z,-3.70
2018-02-22T22:15:15.611Z,-3.70
2018-02-22T22:18:26.327Z,-3.70
2018-02-22T22:21:36.495Z,-3.70
2018-02-22T22:24:47.300Z,-3.80
2018-02-22T22:27:58.302Z,-3.80
2018-02-22T22:31:08.128Z,-3.80
2018-02-22T22:34:19.340Z,-3.80
2018-02-22T22:37:29.630Z,-3.90
2018-02-22T22:40:41.311Z,-3.90
2018-02-22T22:43:51.340Z,-3.90
2018-02-22T22:47:02.283Z,-4.00
2018-02-22T22:50:12.197Z,-3.90
2018-02-22T22:53:22.224Z,-4.00
2018-02-22T22:56:32.400Z,-4.00
2018-02-22T22:59:42.666Z,-4.10
2018-02-22T23:02:52.539Z,-4.10
2018-02-22T23:06:03.516Z,-4.10
2018-02-22T23:09:13.859Z,-4.10
2018-02-22T23:12:24.450Z,-4.10
2018-02-22T23:15:34.532Z,-4.10
2018-02-22T23:18:44.439Z,-4.10
2018-02-22T23:21:54.519Z,-4.20
2018-02-22T23:25:05.940Z,-4.20
2018-02-22T23:28:16.324Z,-4.20
2018-02-22T23:31:26.257Z,-4.20
2018-02-22T23:34:36.671Z,-4.30
2018-02-22T23:37:46.930Z,-4.30
2018-02-22T23:40:57.721Z,-4.30
2018-02-22T23:44:07.797Z,-4.30
2018-02-22T23:47:17.752Z,-4.40
2018-02-22T23:50:28.249Z,-4.40
2018-02-22T23:53:39.331Z,-4.40
2018-02-22T23:56:49.880Z,-4.40
2018-02-22T23:59:59.904Z,-4.50
